sensor_id;sensor_type;location;lat;lon;timestamp;temperature;humidity
1506;DHT22;744;51.436;7.356;2023-05-14T00:01:18;15.80;45.90
1506;DHT22;744;51.436;7.356;2023-05-14T00:03:45;15.70;45.80
1506;DHT22;744;51.436;7.356;2023-05-14T00:06:13;15.70;45.70
1506;DHT22;744;51.436;7.356;2023-05-14T00:08:40;15.80;45.90
1506;DHT22;744;51.436;7.356;2023-05-14T00:11:07;15.70;46.10
1506;DHT22;744;51.436;7.356;2023-05-14T00:13:35;15.50;45.90
1506;DHT22;744;51.436;7.356;2023-05-14T00:16:02;15.60;45.90
1506;DHT22;744;51.436;7.356;2023-05-14T00:18:29;15.80;46.00
1506;DHT22;744;51.436;7.356;2023-05-14T00:20:56;15.80;46.00
1506;DHT22;744;51.436;7.356;2023-05-14T00:23:23;15.70;46.10
1506;DHT22;744;51.436;7.356;2023-05-14T00:25:50;15.60;46.10
1506;DHT22;744;51.436;7.356;2023-05-14T00:28:16;15.40;46.10
1506;DHT22;744;51.436;7.356;2023-05-14T00:30:43;15.30;46.20
1506;DHT22;744;51.436;7.356;2023-05-14T00:33:10;15.40;46.20
1506;DHT22;744;51.436;7.356;2023-05-14T00:35:37;15.20;46.30
1506;DHT22;744;51.436;7.356;2023-05-14T00:38:04;15.30;46.60
1506;DHT22;744;51.436;7.356;2023-05-14T00:40:30;15.30;46.70
1506;DHT22;744;51.436;7.356;2023-05-14T00:42:57;15.20;46.60
1506;DHT22;744;51.436;7.356;2023-05-14T00:45:24;15.70;47.10
1506;DHT22;744;51.436;7.356;2023-05-14T00:47:52;15.50;47.00
1506;DHT22;744;51.436;7.356;2023-05-14T00:50:19;15.50;47.30
1506;DHT22;744;51.436;7.356;2023-05-14T00:52:47;15.20;46.80
1506;DHT22;744;51.436;7.356;2023-05-14T00:55:15;15.40;46.80
1506;DHT22;744;51.436;7.356;2023-05-14T00:57:42;15.50;46.90
1506;DHT22;744;51.436;7.356;2023-05-14T01:00:09;15.50;46.80
1506;DHT22;744;51.436;7.356;2023-05-14T01:02:36;15.40;46.80
1506;DHT22;744;51.436;7.356;2023-05-14T01:05:04;15.50;47.10
1506;DHT22;744;51.436;7.356;2023-05-14T01:10:38;15.20;46.80
1506;DHT22;744;51.436;7.356;2023-05-14T01:13:12;15.00;46.70
1506;DHT22;744;51.436;7.356;2023-05-14T01:15:43;15.00;46.90
1506;DHT22;744;51.436;7.356;2023-05-14T01:18:12;15.00;47.10
1506;DHT22;744;51.436;7.356;2023-05-14T01:20:39;15.00;47.10
1506;DHT22;744;51.436;7.356;2023-05-14T01:23:06;14.80;47.00
1506;DHT22;744;51.436;7.356;2023-05-14T01:25:33;15.00;47.20
1506;DHT22;744;51.436;7.356;2023-05-14T01:28:18;15.10;47.30
1506;DHT22;744;51.436;7.356;2023-05-14T01:30:54;15.00;47.80
1506;DHT22;744;51.436;7.356;2023-05-14T01:33:25;15.20;47.30
1506;DHT22;744;51.436;7.356;2023-05-14T01:35:53;15.10;47.20
1506;DHT22;744;51.436;7.356;2023-05-14T01:38:21;14.90;47.10
1506;DHT22;744;51.436;7.356;2023-05-14T01:40:49;14.70;46.90
1506;DHT22;744;51.436;7.356;2023-05-14T01:43:16;14.90;47.00
1506;DHT22;744;51.436;7.356;2023-05-14T01:45:44;14.80;46.90
1506;DHT22;744;51.436;7.356;2023-05-14T01:48:11;15.00;47.10
1506;DHT22;744;51.436;7.356;2023-05-14T01:50:38;14.80;47.00
1506;DHT22;744;51.436;7.356;2023-05-14T01:53:05;15.00;47.10
1506;DHT22;744;51.436;7.356;2023-05-14T01:55:32;14.90;47.10
1506;DHT22;744;51.436;7.356;2023-05-14T01:57:58;15.00;47.10
1506;DHT22;744;51.436;7.356;2023-05-14T02:00:25;14.90;47.00
1506;DHT22;744;51.436;7.356;2023-05-14T02:02:52;14.70;46.90
1506;DHT22;744;51.436;7.356;2023-05-14T02:05:19;14.80;47.00
1506;DHT22;744;51.436;7.356;2023-05-14T02:07:46;14.60;46.80
1506;DHT22;744;51.436;7.356;2023-05-14T02:10:13;14.70;47.10
1506;DHT22;744;51.436;7.356;2023-05-14T02:12:40;14.60;47.20
1506;DHT22;744;51.436;7.356;2023-05-14T02:15:07;14.70;47.30
1506;DHT22;744;51.436;7.356;2023-05-14T02:17:36;14.70;47.30
1506;DHT22;744;51.436;7.356;2023-05-14T02:20:03;14.40;47.00
1506;DHT22;744;51.436;7.356;2023-05-14T02:22:30;14.70;46.90
1506;DHT22;744;51.436;7.356;2023-05-14T02:24:57;14.50;46.80
1506;DHT22;744;51.436;7.356;2023-05-14T02:27:24;14.40;47.00
1506;DHT22;744;51.436;7.356;2023-05-14T02:29:52;14.40;47.20
1506;DHT22;744;51.436;7.356;2023-05-14T02:32:18;14.40;47.20
1506;DHT22;744;51.436;7.356;2023-05-14T02:34:45;14.30;46.90
1506;DHT22;744;51.436;7.356;2023-05-14T02:37:12;14.50;46.80
1506;DHT22;744;51.436;7.356;2023-05-14T02:39:39;14.60;46.90
1506;DHT22;744;51.436;7.356;2023-05-14T02:42:06;14.60;47.30
1506;DHT22;744;51.436;7.356;2023-05-14T02:44:33;14.40;47.40
1506;DHT22;744;51.436;7.356;2023-05-14T02:46:59;14.60;47.50
1506;DHT22;744;51.436;7.356;2023-05-14T02:49:26;14.60;47.50
1506;DHT22;744;51.436;7.356;2023-05-14T02:51:53;14.50;47.40
1506;DHT22;744;51.436;7.356;2023-05-14T02:54:20;14.30;47.50
1506;DHT22;744;51.436;7.356;2023-05-14T02:56:47;14.40;47.50
1506;DHT22;744;51.436;7.356;2023-05-14T02:59:13;14.50;47.50
1506;DHT22;744;51.436;7.356;2023-05-14T03:01:41;14.40;47.20
1506;DHT22;744;51.436;7.356;2023-05-14T03:04:08;14.20;47.10
1506;DHT22;744;51.436;7.356;2023-05-14T03:06:35;14.50;47.30
1506;DHT22;744;51.436;7.356;2023-05-14T03:09:02;14.50;47.20
1506;DHT22;744;51.436;7.356;2023-05-14T03:11:29;14.30;47.10
1506;DHT22;744;51.436;7.356;2023-05-14T03:13:55;14.20;47.20
1506;DHT22;744;51.436;7.356;2023-05-14T03:16:22;14.20;47.40
1506;DHT22;744;51.436;7.356;2023-05-14T03:18:49;14.10;47.40
1506;DHT22;744;51.436;7.356;2023-05-14T03:21:16;13.90;47.20
1506;DHT22;744;51.436;7.356;2023-05-14T03:23:43;14.00;47.30
1506;DHT22;744;51.436;7.356;2023-05-14T03:26:09;14.10;47.40
1506;DHT22;744;51.436;7.356;2023-05-14T03:28:36;14.00;47.30
1506;DHT22;744;51.436;7.356;2023-05-14T03:31:03;14.10;47.50
1506;DHT22;744;51.436;7.356;2023-05-14T03:33:30;14.20;47.70
1506;DHT22;744;51.436;7.356;2023-05-14T03:35:57;13.90;47.50
1506;DHT22;744;51.436;7.356;2023-05-14T03:38:24;13.80;47.40
1506;DHT22;744;51.436;7.356;2023-05-14T03:40:50;13.70;47.50
1506;DHT22;744;51.436;7.356;2023-05-14T03:43:17;13.60;47.50
1506;DHT22;744;51.436;7.356;2023-05-14T03:45:44;13.80;47.80
1506;DHT22;744;51.436;7.356;2023-05-14T03:48:11;13.80;47.80
1506;DHT22;744;51.436;7.356;2023-05-14T03:50:38;14.00;47.90
1506;DHT22;744;51.436;7.356;2023-05-14T03:53:05;14.00;48.00
1506;DHT22;744;51.436;7.356;2023-05-14T03:55:31;13.80;47.80
1506;DHT22;744;51.436;7.356;2023-05-14T03:57:58;13.80;47.70
1506;DHT22;744;51.436;7.356;2023-05-14T04:00:25;14.00;48.00
1506;DHT22;744;51.436;7.356;2023-05-14T04:02:52;14.00;48.20
1506;DHT22;744;51.436;7.356;2023-05-14T04:05:19;13.80;48.10
1506;DHT22;744;51.436;7.356;2023-05-14T04:07:46;13.80;48.20
1506;DHT22;744;51.436;7.356;2023-05-14T04:10:14;13.50;48.00
1506;DHT22;744;51.436;7.356;2023-05-14T04:12:41;13.70;48.30
1506;DHT22;744;51.436;7.356;2023-05-14T04:15:08;13.50;48.20
1506;DHT22;744;51.436;7.356;2023-05-14T04:17:35;13.50;48.30
1506;DHT22;744;51.436;7.356;2023-05-14T04:20:02;13.80;48.60
1506;DHT22;744;51.436;7.356;2023-05-14T04:22:29;13.50;48.40
1506;DHT22;744;51.436;7.356;2023-05-14T04:24:57;13.70;48.50
1506;DHT22;744;51.436;7.356;2023-05-14T04:27:24;13.50;48.50
1506;DHT22;744;51.436;7.356;2023-05-14T04:29:51;13.70;48.60
1506;DHT22;744;51.436;7.356;2023-05-14T04:32:17;13.80;48.70
1506;DHT22;744;51.436;7.356;2023-05-14T04:34:44;13.80;48.80
1506;DHT22;744;51.436;7.356;2023-05-14T04:37:12;13.60;48.70
1506;DHT22;744;51.436;7.356;2023-05-14T04:39:39;13.80;48.80
1506;DHT22;744;51.436;7.356;2023-05-14T04:42:06;13.80;48.70
1506;DHT22;744;51.436;7.356;2023-05-14T04:44:34;13.80;48.70
1506;DHT22;744;51.436;7.356;2023-05-14T04:47:01;14.00;48.90
1506;DHT22;744;51.436;7.356;2023-05-14T04:49:29;13.80;48.80
1506;DHT22;744;51.436;7.356;2023-05-14T04:51:56;13.70;48.80
1506;DHT22;744;51.436;7.356;2023-05-14T04:54:23;13.90;49.00
1506;DHT22;744;51.436;7.356;2023-05-14T04:56:50;14.00;49.20
1506;DHT22;744;51.436;7.356;2023-05-14T04:59:16;13.80;48.90
1506;DHT22;744;51.436;7.356;2023-05-14T05:01:43;14.00;49.10
1506;DHT22;744;51.436;7.356;2023-05-14T05:04:11;13.80;49.00
1506;DHT22;744;51.436;7.356;2023-05-14T05:06:38;13.80;48.90
1506;DHT22;744;51.436;7.356;2023-05-14T05:09:05;14.00;49.10
1506;DHT22;744;51.436;7.356;2023-05-14T05:11:32;14.20;49.10
1506;DHT22;744;51.436;7.356;2023-05-14T05:13:59;14.30;49.10
1506;DHT22;744;51.436;7.356;2023-05-14T05:16:26;14.50;49.30
1506;DHT22;744;51.436;7.356;2023-05-14T05:18:53;14.30;49.10
1506;DHT22;744;51.436;7.356;2023-05-14T05:21:19;14.70;49.60
1506;DHT22;744;51.436;7.356;2023-05-14T05:23:46;14.40;49.40
1506;DHT22;744;51.436;7.356;2023-05-14T05:26:13;14.50;49.40
1506;DHT22;744;51.436;7.356;2023-05-14T05:28:40;14.50;49.40
1506;DHT22;744;51.436;7.356;2023-05-14T05:31:07;14.70;49.80
1506;DHT22;744;51.436;7.356;2023-05-14T05:33:34;14.70;49.70
1506;DHT22;744;51.436;7.356;2023-05-14T05:36:01;14.60;49.70
1506;DHT22;744;51.436;7.356;2023-05-14T05:38:28;14.70;49.70
1506;DHT22;744;51.436;7.356;2023-05-14T05:40:55;14.90;49.90
1506;DHT22;744;51.436;7.356;2023-05-14T05:43:22;14.80;49.70
1506;DHT22;744;51.436;7.356;2023-05-14T05:45:48;15.00;49.60
1506;DHT22;744;51.436;7.356;2023-05-14T05:48:15;14.90;49.50
1506;DHT22;744;51.436;7.356;2023-05-14T05:50:42;14.90;49.50
1506;DHT22;744;51.436;7.356;2023-05-14T05:53:10;14.90;49.70
1506;DHT22;744;51.436;7.356;2023-05-14T05:55:38;14.80;49.80
1506;DHT22;744;51.436;7.356;2023-05-14T05:58:04;15.10;50.10
1506;DHT22;744;51.436;7.356;2023-05-14T06:00:31;15.10;50.10
1506;DHT22;744;51.436;7.356;2023-05-14T06:02:59;15.00;50.00
1506;DHT22;744;51.436;7.356;2023-05-14T06:05:26;14.90;49.80
1506;DHT22;744;51.436;7.356;2023-05-14T06:07:52;15.20;50.00
1506;DHT22;744;51.436;7.356;2023-05-14T06:10:19;15.20;49.80
1506;DHT22;744;51.436;7.356;2023-05-14T06:12:46;15.30;49.80
1506;DHT22;744;51.436;7.356;2023-05-14T06:15:13;15.60;49.90
1506;DHT22;744;51.436;7.356;2023-05-14T06:17:40;15.70;49.90
1506;DHT22;744;51.436;7.356;2023-05-14T06:20:08;15.60;49.90
1506;DHT22;744;51.436;7.356;2023-05-14T06:22:35;15.90;50.10
1506;DHT22;744;51.436;7.356;2023-05-14T06:25:02;16.00;50.10
1506;DHT22;744;51.436;7.356;2023-05-14T06:27:29;15.90;49.90
1506;DHT22;744;51.436;7.356;2023-05-14T06:29:56;16.00;49.90
1506;DHT22;744;51.436;7.356;2023-05-14T06:32:23;16.30;50.10
1506;DHT22;744;51.436;7.356;2023-05-14T06:34:50;16.00;49.90
1506;DHT22;744;51.436;7.356;2023-05-14T06:37:16;16.40;50.20
1506;DHT22;744;51.436;7.356;2023-05-14T06:39:43;16.40;50.10
1506;DHT22;744;51.436;7.356;2023-05-14T06:42:16;16.60;50.20
1506;DHT22;744;51.436;7.356;2023-05-14T06:44:43;16.50;50.00
1506;DHT22;744;51.436;7.356;2023-05-14T06:47:10;16.70;50.00
1506;DHT22;744;51.436;7.356;2023-05-14T06:49:38;16.60;49.80
1506;DHT22;744;51.436;7.356;2023-05-14T06:52:05;17.00;50.00
1506;DHT22;744;51.436;7.356;2023-05-14T06:54:32;16.90;49.80
1506;DHT22;744;51.436;7.356;2023-05-14T06:56:59;16.90;49.70
1506;DHT22;744;51.436;7.356;2023-05-14T06:59:26;17.10;49.80
1506;DHT22;744;51.436;7.356;2023-05-14T07:01:53;17.30;49.80
1506;DHT22;744;51.436;7.356;2023-05-14T07:04:20;17.40;49.70
1506;DHT22;744;51.436;7.356;2023-05-14T07:06:47;17.20;49.30
1506;DHT22;744;51.436;7.356;2023-05-14T07:09:15;17.40;49.40
1506;DHT22;744;51.436;7.356;2023-05-14T07:11:42;17.30;49.20
1506;DHT22;744;51.436;7.356;2023-05-14T07:14:09;17.30;49.10
1506;DHT22;744;51.436;7.356;2023-05-14T07:16:36;17.30;49.10
1506;DHT22;744;51.436;7.356;2023-05-14T07:19:03;17.00;49.10
1506;DHT22;744;51.436;7.356;2023-05-14T07:21:30;17.20;49.80
1506;DHT22;744;51.436;7.356;2023-05-14T07:23:58;17.30;49.10
1506;DHT22;744;51.436;7.356;2023-05-14T07:26:24;17.60;49.40
1506;DHT22;744;51.436;7.356;2023-05-14T07:28:51;17.50;49.00
1506;DHT22;744;51.436;7.356;2023-05-14T07:31:18;17.80;48.90
1506;DHT22;744;51.436;7.356;2023-05-14T07:33:45;17.90;48.80
1506;DHT22;744;51.436;7.356;2023-05-14T07:36:12;18.10;48.50
1506;DHT22;744;51.436;7.356;2023-05-14T07:38:39;18.00;48.00
1506;DHT22;744;51.436;7.356;2023-05-14T07:41:06;18.20;47.90
1506;DHT22;744;51.436;7.356;2023-05-14T07:43:33;18.20;47.40
1506;DHT22;744;51.436;7.356;2023-05-14T07:46:00;18.20;47.00
1506;DHT22;744;51.436;7.356;2023-05-14T07:48:26;18.40;46.70
1506;DHT22;744;51.436;7.356;2023-05-14T07:50:53;18.50;46.60
1506;DHT22;744;51.436;7.356;2023-05-14T07:53:20;18.70;46.50
1506;DHT22;744;51.436;7.356;2023-05-14T07:55:47;18.70;45.90
1506;DHT22;744;51.436;7.356;2023-05-14T07:58:14;18.90;46.10
1506;DHT22;744;51.436;7.356;2023-05-14T08:00:42;18.90;46.00
1506;DHT22;744;51.436;7.356;2023-05-14T08:03:09;18.80;45.00
1506;DHT22;744;51.436;7.356;2023-05-14T08:05:36;18.70;44.40
1506;DHT22;744;51.436;7.356;2023-05-14T08:08:02;19.10;44.10
1506;DHT22;744;51.436;7.356;2023-05-14T08:10:30;19.20;43.90
1506;DHT22;744;51.436;7.356;2023-05-14T08:12:56;19.20;44.10
1506;DHT22;744;51.436;7.356;2023-05-14T08:15:23;19.00;43.20
1506;DHT22;744;51.436;7.356;2023-05-14T08:17:53;19.20;43.00
1506;DHT22;744;51.436;7.356;2023-05-14T08:20:20;19.30;42.60
1506;DHT22;744;51.436;7.356;2023-05-14T08:22:48;19.60;42.10
1506;DHT22;744;51.436;7.356;2023-05-14T08:25:15;19.50;42.00
1506;DHT22;744;51.436;7.356;2023-05-14T08:27:42;19.60;42.10
1506;DHT22;744;51.436;7.356;2023-05-14T08:30:08;19.60;41.20
1506;DHT22;744;51.436;7.356;2023-05-14T08:32:35;19.40;40.50
1506;DHT22;744;51.436;7.356;2023-05-14T08:35:04;19.80;40.00
1506;DHT22;744;51.436;7.356;2023-05-14T08:37:32;19.90;39.40
1506;DHT22;744;51.436;7.356;2023-05-14T08:39:59;20.00;39.20
1506;DHT22;744;51.436;7.356;2023-05-14T08:42:27;20.10;38.70
1506;DHT22;744;51.436;7.356;2023-05-14T08:45:02;20.10;38.20
1506;DHT22;744;51.436;7.356;2023-05-14T08:47:30;20.20;38.00
1506;DHT22;744;51.436;7.356;2023-05-14T08:50:04;20.20;38.00
1506;DHT22;744;51.436;7.356;2023-05-14T08:52:32;20.30;37.60
1506;DHT22;744;51.436;7.356;2023-05-14T08:55:02;20.30;37.50
1506;DHT22;744;51.436;7.356;2023-05-14T08:57:31;20.30;37.00
1506;DHT22;744;51.436;7.356;2023-05-14T08:59:59;20.40;36.90
1506;DHT22;744;51.436;7.356;2023-05-14T09:02:30;20.50;36.80
1506;DHT22;744;51.436;7.356;2023-05-14T09:04:59;20.40;36.80
1506;DHT22;744;51.436;7.356;2023-05-14T09:07:26;20.30;37.00
1506;DHT22;744;51.436;7.356;2023-05-14T09:09:53;20.40;37.50
1506;DHT22;744;51.436;7.356;2023-05-14T09:12:21;20.60;37.20
1506;DHT22;744;51.436;7.356;2023-05-14T09:14:49;20.60;36.20
1506;DHT22;744;51.436;7.356;2023-05-14T09:17:17;20.50;36.10
1506;DHT22;744;51.436;7.356;2023-05-14T09:19:45;20.50;36.10
1506;DHT22;744;51.436;7.356;2023-05-14T09:22:16;20.60;35.60
1506;DHT22;744;51.436;7.356;2023-05-14T09:24:43;20.60;35.40
1506;DHT22;744;51.436;7.356;2023-05-14T09:27:20;20.60;34.80
1506;DHT22;744;51.436;7.356;2023-05-14T09:29:47;20.60;34.90
1506;DHT22;744;51.436;7.356;2023-05-14T09:32:14;20.70;34.80
1506;DHT22;744;51.436;7.356;2023-05-14T09:34:41;20.90;34.70
1506;DHT22;744;51.436;7.356;2023-05-14T09:37:08;20.90;34.70
1506;DHT22;744;51.436;7.356;2023-05-14T09:39:36;20.90;34.50
1506;DHT22;744;51.436;7.356;2023-05-14T09:42:03;20.90;34.00
1506;DHT22;744;51.436;7.356;2023-05-14T09:44:31;20.70;34.30
1506;DHT22;744;51.436;7.356;2023-05-14T09:46:58;20.90;34.70
1506;DHT22;744;51.436;7.356;2023-05-14T09:49:25;21.00;34.10
1506;DHT22;744;51.436;7.356;2023-05-14T09:51:51;21.10;34.10
1506;DHT22;744;51.436;7.356;2023-05-14T09:54:18;21.20;34.20
1506;DHT22;744;51.436;7.356;2023-05-14T09:56:46;21.30;34.30
1506;DHT22;744;51.436;7.356;2023-05-14T09:59:13;21.40;34.40
1506;DHT22;744;51.436;7.356;2023-05-14T10:01:41;21.30;34.30
1506;DHT22;744;51.436;7.356;2023-05-14T10:04:10;21.30;34.10
1506;DHT22;744;51.436;7.356;2023-05-14T10:06:38;21.30;34.30
1506;DHT22;744;51.436;7.356;2023-05-14T10:09:12;21.40;34.40
1506;DHT22;744;51.436;7.356;2023-05-14T10:11:42;21.50;33.70
1506;DHT22;744;51.436;7.356;2023-05-14T10:14:32;21.60;33.60
1506;DHT22;744;51.436;7.356;2023-05-14T10:17:00;21.70;33.80
1506;DHT22;744;51.436;7.356;2023-05-14T10:19:32;21.80;33.80
1506;DHT22;744;51.436;7.356;2023-05-14T10:22:03;21.70;32.40
1506;DHT22;744;51.436;7.356;2023-05-14T10:24:31;21.60;31.70
1506;DHT22;744;51.436;7.356;2023-05-14T10:26:58;21.60;31.60
1506;DHT22;744;51.436;7.356;2023-05-14T10:29:35;21.70;31.00
1506;DHT22;744;51.436;7.356;2023-05-14T10:32:07;21.80;30.50
1506;DHT22;744;51.436;7.356;2023-05-14T10:37:16;21.90;30.30
1506;DHT22;744;51.436;7.356;2023-05-14T10:39:57;21.90;30.10
1506;DHT22;744;51.436;7.356;2023-05-14T10:42:33;21.90;30.10
1506;DHT22;744;51.436;7.356;2023-05-14T10:45:06;22.00;30.10
1506;DHT22;744;51.436;7.356;2023-05-14T10:47:38;22.00;30.20
1506;DHT22;744;51.436;7.356;2023-05-14T10:50:07;22.10;30.20
1506;DHT22;744;51.436;7.356;2023-05-14T10:52:35;22.10;30.30
1506;DHT22;744;51.436;7.356;2023-05-14T10:55:03;22.10;30.00
1506;DHT22;744;51.436;7.356;2023-05-14T10:57:39;22.20;30.00
1506;DHT22;744;51.436;7.356;2023-05-14T11:00:07;22.30;29.10
1506;DHT22;744;51.436;7.356;2023-05-14T11:02:36;22.30;29.20
1506;DHT22;744;51.436;7.356;2023-05-14T11:05:08;22.40;29.00
1506;DHT22;744;51.436;7.356;2023-05-14T11:07:38;22.40;28.40
1506;DHT22;744;51.436;7.356;2023-05-14T11:10:06;22.40;28.40
1506;DHT22;744;51.436;7.356;2023-05-14T11:12:35;22.50;28.40
1506;DHT22;744;51.436;7.356;2023-05-14T11:15:07;22.40;28.40
1506;DHT22;744;51.436;7.356;2023-05-14T11:17:39;22.40;28.10
1506;DHT22;744;51.436;7.356;2023-05-14T11:20:07;22.30;28.30
1506;DHT22;744;51.436;7.356;2023-05-14T11:22:35;22.30;28.60
1506;DHT22;744;51.436;7.356;2023-05-14T11:25:03;22.40;28.90
1506;DHT22;744;51.436;7.356;2023-05-14T11:27:33;22.50;29.20
1506;DHT22;744;51.436;7.356;2023-05-14T11:30:00;22.50;28.70
1506;DHT22;744;51.436;7.356;2023-05-14T11:32:27;22.30;28.80
1506;DHT22;744;51.436;7.356;2023-05-14T11:34:54;22.20;29.20
1506;DHT22;744;51.436;7.356;2023-05-14T11:37:21;22.30;29.40
1506;DHT22;744;51.436;7.356;2023-05-14T11:39:52;22.40;29.10
1506;DHT22;744;51.436;7.356;2023-05-14T11:42:20;22.40;29.00
1506;DHT22;744;51.436;7.356;2023-05-14T11:44:49;22.30;29.30
1506;DHT22;744;51.436;7.356;2023-05-14T11:47:19;22.40;29.20
1506;DHT22;744;51.436;7.356;2023-05-14T11:49:46;22.50;29.10
1506;DHT22;744;51.436;7.356;2023-05-14T11:52:15;22.50;28.90
1506;DHT22;744;51.436;7.356;2023-05-14T11:54:45;22.70;28.90
1506;DHT22;744;51.436;7.356;2023-05-14T11:57:15;22.80;28.70
1506;DHT22;744;51.436;7.356;2023-05-14T11:59:42;22.80;28.50
1506;DHT22;744;51.436;7.356;2023-05-14T12:02:14;22.70;28.30
1506;DHT22;744;51.436;7.356;2023-05-14T12:04:41;22.70;28.30
1506;DHT22;744;51.436;7.356;2023-05-14T12:07:10;22.70;28.50
1506;DHT22;744;51.436;7.356;2023-05-14T12:09:44;22.70;28.10
1506;DHT22;744;51.436;7.356;2023-05-14T12:12:19;22.50;27.80
1506;DHT22;744;51.436;7.356;2023-05-14T12:14:47;22.20;27.80
1506;DHT22;744;51.436;7.356;2023-05-14T12:17:21;22.20;28.00
1506;DHT22;744;51.436;7.356;2023-05-14T12:19:50;22.30;28.00
1506;DHT22;744;51.436;7.356;2023-05-14T12:22:21;22.40;28.40
1506;DHT22;744;51.436;7.356;2023-05-14T12:24:55;22.60;28.20
1506;DHT22;744;51.436;7.356;2023-05-14T12:27:23;22.60;28.10
1506;DHT22;744;51.436;7.356;2023-05-14T12:30:00;22.50;28.40
1506;DHT22;744;51.436;7.356;2023-05-14T12:32:46;22.60;28.70
1506;DHT22;744;51.436;7.356;2023-05-14T12:35:17;22.50;28.70
1506;DHT22;744;51.436;7.356;2023-05-14T12:37:44;22.50;28.50
1506;DHT22;744;51.436;7.356;2023-05-14T12:40:11;22.70;28.60
1506;DHT22;744;51.436;7.356;2023-05-14T12:42:38;22.90;28.80
1506;DHT22;744;51.436;7.356;2023-05-14T12:45:06;23.10;28.70
1506;DHT22;744;51.436;7.356;2023-05-14T12:47:34;23.30;28.40
1506;DHT22;744;51.436;7.356;2023-05-14T12:50:04;23.30;28.30
1506;DHT22;744;51.436;7.356;2023-05-14T12:52:31;23.30;28.30
1506;DHT22;744;51.436;7.356;2023-05-14T12:55:08;23.20;27.90
1506;DHT22;744;51.436;7.356;2023-05-14T12:57:36;23.10;28.20
1506;DHT22;744;51.436;7.356;2023-05-14T13:00:08;23.20;28.50
1506;DHT22;744;51.436;7.356;2023-05-14T13:02:47;23.10;28.60
1506;DHT22;744;51.436;7.356;2023-05-14T13:05:14;22.90;29.20
1506;DHT22;744;51.436;7.356;2023-05-14T13:07:41;22.70;29.50
1506;DHT22;744;51.436;7.356;2023-05-14T13:10:08;22.50;29.80
1506;DHT22;744;51.436;7.356;2023-05-14T13:12:35;22.40;30.00
1506;DHT22;744;51.436;7.356;2023-05-14T13:15:03;22.50;30.00
1506;DHT22;744;51.436;7.356;2023-05-14T13:17:30;22.40;29.60
1506;DHT22;744;51.436;7.356;2023-05-14T13:19:57;22.40;29.60
1506;DHT22;744;51.436;7.356;2023-05-14T13:22:23;22.40;29.50
1506;DHT22;744;51.436;7.356;2023-05-14T13:24:50;22.40;29.50
1506;DHT22;744;51.436;7.356;2023-05-14T13:27:17;22.30;29.30
1506;DHT22;744;51.436;7.356;2023-05-14T13:29:44;22.20;29.00
1506;DHT22;744;51.436;7.356;2023-05-14T13:32:11;22.20;29.20
1506;DHT22;744;51.436;7.356;2023-05-14T13:34:38;22.40;29.50
1506;DHT22;744;51.436;7.356;2023-05-14T13:37:05;22.60;29.50
1506;DHT22;744;51.436;7.356;2023-05-14T13:39:32;22.60;29.40
1506;DHT22;744;51.436;7.356;2023-05-14T13:41:58;22.60;29.60
1506;DHT22;744;51.436;7.356;2023-05-14T13:44:26;22.70;29.40
1506;DHT22;744;51.436;7.356;2023-05-14T13:46:53;22.80;29.50
1506;DHT22;744;51.436;7.356;2023-05-14T13:49:20;22.90;29.50
1506;DHT22;744;51.436;7.356;2023-05-14T13:51:47;23.20;28.80
1506;DHT22;744;51.436;7.356;2023-05-14T13:54:14;23.30;28.80
1506;DHT22;744;51.436;7.356;2023-05-14T13:56:40;23.40;29.00
1506;DHT22;744;51.436;7.356;2023-05-14T13:59:07;23.50;28.40
1506;DHT22;744;51.436;7.356;2023-05-14T14:01:34;23.50;27.80
1506;DHT22;744;51.436;7.356;2023-05-14T14:04:01;23.40;27.50
1506;DHT22;744;51.436;7.356;2023-05-14T14:06:29;23.50;28.10
1506;DHT22;744;51.436;7.356;2023-05-14T14:08:56;23.70;28.10
1506;DHT22;744;51.436;7.356;2023-05-14T14:11:23;23.70;27.60
1506;DHT22;744;51.436;7.356;2023-05-14T14:13:50;23.70;27.60
1506;DHT22;744;51.436;7.356;2023-05-14T14:16:17;23.50;27.50
1506;DHT22;744;51.436;7.356;2023-05-14T14:18:44;23.50;27.80
1506;DHT22;744;51.436;7.356;2023-05-14T14:21:11;23.60;27.90
1506;DHT22;744;51.436;7.356;2023-05-14T14:23:37;23.50;28.30
1506;DHT22;744;51.436;7.356;2023-05-14T14:26:04;23.40;28.50
1506;DHT22;744;51.436;7.356;2023-05-14T14:28:31;23.40;28.90
1506;DHT22;744;51.436;7.356;2023-05-14T14:30:58;23.40;28.70
1506;DHT22;744;51.436;7.356;2023-05-14T14:33:25;23.50;28.70
1506;DHT22;744;51.436;7.356;2023-05-14T14:35:52;23.50;28.40
1506;DHT22;744;51.436;7.356;2023-05-14T14:38:19;23.40;28.40
1506;DHT22;744;51.436;7.356;2023-05-14T14:40:46;23.20;28.30
1506;DHT22;744;51.436;7.356;2023-05-14T14:43:13;23.00;28.10
1506;DHT22;744;51.436;7.356;2023-05-14T14:45:39;23.00;28.00
1506;DHT22;744;51.436;7.356;2023-05-14T14:48:28;23.00;27.70
1506;DHT22;744;51.436;7.356;2023-05-14T14:51:05;23.00;27.80
1506;DHT22;744;51.436;7.356;2023-05-14T14:53:33;23.20;27.80
1506;DHT22;744;51.436;7.356;2023-05-14T14:56:00;23.50;27.70
1506;DHT22;744;51.436;7.356;2023-05-14T14:58:27;23.80;27.70
1506;DHT22;744;51.436;7.356;2023-05-14T15:00:55;23.90;28.30
1506;DHT22;744;51.436;7.356;2023-05-14T15:03:23;23.90;27.30
1506;DHT22;744;51.436;7.356;2023-05-14T15:05:51;23.70;27.60
1506;DHT22;744;51.436;7.356;2023-05-14T15:08:22;23.60;27.60
1506;DHT22;744;51.436;7.356;2023-05-14T15:10:49;23.60;27.60
1506;DHT22;744;51.436;7.356;2023-05-14T15:13:16;23.70;27.60
1506;DHT22;744;51.436;7.356;2023-05-14T15:15:43;23.70;27.60
1506;DHT22;744;51.436;7.356;2023-05-14T15:18:10;23.80;27.80
1506;DHT22;744;51.436;7.356;2023-05-14T15:20:37;24.00;28.20
1506;DHT22;744;51.436;7.356;2023-05-14T15:23:03;24.00;28.10
1506;DHT22;744;51.436;7.356;2023-05-14T15:25:30;24.00;27.80
1506;DHT22;744;51.436;7.356;2023-05-14T15:27:57;24.00;27.80
1506;DHT22;744;51.436;7.356;2023-05-14T15:30:24;24.10;27.90
1506;DHT22;744;51.436;7.356;2023-05-14T15:32:51;24.10;27.90
1506;DHT22;744;51.436;7.356;2023-05-14T15:35:18;24.00;27.80
1506;DHT22;744;51.436;7.356;2023-05-14T15:37:45;24.00;27.80
1506;DHT22;744;51.436;7.356;2023-05-14T15:40:11;23.90;27.70
1506;DHT22;744;51.436;7.356;2023-05-14T15:42:40;24.00;27.80
1506;DHT22;744;51.436;7.356;2023-05-14T15:45:08;24.00;27.70
1506;DHT22;744;51.436;7.356;2023-05-14T15:47:36;24.00;27.80
1506;DHT22;744;51.436;7.356;2023-05-14T15:50:03;23.90;27.70
1506;DHT22;744;51.436;7.356;2023-05-14T15:52:31;23.90;27.70
1506;DHT22;744;51.436;7.356;2023-05-14T15:54:58;23.70;27.60
1506;DHT22;744;51.436;7.356;2023-05-14T15:57:25;23.60;27.60
1506;DHT22;744;51.436;7.356;2023-05-14T15:59:52;23.50;27.50
1506;DHT22;744;51.436;7.356;2023-05-14T16:02:19;23.40;27.40
1506;DHT22;744;51.436;7.356;2023-05-14T16:04:46;23.30;27.30
1506;DHT22;744;51.436;7.356;2023-05-14T16:07:15;23.30;27.30
1506;DHT22;744;51.436;7.356;2023-05-14T16:09:42;23.30;27.60
1506;DHT22;744;51.436;7.356;2023-05-14T16:12:09;23.40;27.70
1506;DHT22;744;51.436;7.356;2023-05-14T16:14:36;23.50;27.60
1506;DHT22;744;51.436;7.356;2023-05-14T16:17:05;23.40;27.40
1506;DHT22;744;51.436;7.356;2023-05-14T16:19:31;23.30;27.40
1506;DHT22;744;51.436;7.356;2023-05-14T16:21:58;23.30;27.70
1506;DHT22;744;51.436;7.356;2023-05-14T16:24:25;23.40;27.80
1506;DHT22;744;51.436;7.356;2023-05-14T16:26:52;23.40;27.90